sensor_id;sensor_type;location;lat;lon;timestamp;pressure;altitude;pressure_sealevel;temperature;humidity
36980;BME280;22891;50.562;7.272;2022-10-03T00:07:37;101055.00;;;9.42;nan
36980;BME280;22891;50.562;7.272;2022-10-03T00:11:06;101069.00;;;9.51;nan
36980;BME280;22891;50.562;7.272;2022-10-03T00:18:20;101074.00;;;9.44;nan
36980;BME280;22891;50.562;7.272;2022-10-03T00:23:21;101083.00;;;9.40;nan
36980;BME280;22891;50.562;7.272;2022-10-03T00:25:58;101090.00;;;9.35;nan
36980;BME280;22891;50.562;7.272;2022-10-03T00:28:52;101096.00;;;9.46;nan
36980;BME280;22891;50.562;7.272;2022-10-03T00:31:24;101094.00;;;9.58;nan
36980;BME280;22891;50.562;7.272;2022-10-03T00:34:36;101096.00;;;9.55;nan
36980;BME280;22891;50.562;7.272;2022-10-03T00:44:32;101100.00;;;9.47;nan
36980;BME280;22891;50.562;7.272;2022-10-03T00:50:57;101097.00;;;9.48;nan
36980;BME280;22891;50.562;7.272;2022-10-03T00:55:11;101121.00;;;9.35;nan
36980;BME280;22891;50.562;7.272;2022-10-03T01:03:40;101109.00;;;9.51;nan
36980;BME280;22891;50.562;7.272;2022-10-03T01:10:25;101114.00;;;9.33;nan
36980;BME280;22891;50.562;7.272;2022-10-03T01:13:49;101120.00;;;9.31;nan
36980;BME280;22891;50.562;7.272;2022-10-03T01:17:18;101125.00;;;9.28;nan
36980;BME280;22891;50.562;7.272;2022-10-03T01:23:37;101125.00;;;9.15;nan
36980;BME280;22891;50.562;7.272;2022-10-03T01:26:25;101127.00;;;9.13;nan
36980;BME280;22891;50.562;7.272;2022-10-03T01:30:23;101133.00;;;9.17;nan
36980;BME280;22891;50.562;7.272;2022-10-03T01:33:02;101123.00;;;9.26;nan
36980;BME280;22891;50.562;7.272;2022-10-03T01:35:54;101128.00;;;9.34;nan
36980;BME280;22891;50.562;7.272;2022-10-03T01:38:36;101107.00;;;9.29;nan
36980;BME280;22891;50.562;7.272;2022-10-03T01:41:19;101130.00;;;9.24;nan
36980;BME280;22891;50.562;7.272;2022-10-03T01:44:30;101123.00;;;9.31;nan
36980;BME280;22891;50.562;7.272;2022-10-03T01:47:43;101115.00;;;9.34;nan
36980;BME280;22891;50.562;7.272;2022-10-03T02:00:49;101113.00;;;9.24;nan
36980;BME280;22891;50.562;7.272;2022-10-03T02:06:51;101118.00;;;9.27;nan
36980;BME280;22891;50.562;7.272;2022-10-03T02:09:53;101124.00;;;8.94;nan
36980;BME280;22891;50.562;7.272;2022-10-03T02:12:47;101130.00;;;8.96;nan
36980;BME280;22891;50.562;7.272;2022-10-03T02:15:40;101129.00;;;8.97;nan
36980;BME280;22891;50.562;7.272;2022-10-03T02:18:22;101132.00;;;8.94;nan
36980;BME280;22891;50.562;7.272;2022-10-03T02:20:56;101132.00;;;8.94;nan
36980;BME280;22891;50.562;7.272;2022-10-03T02:23:46;101128.00;;;9.01;nan
36980;BME280;22891;50.562;7.272;2022-10-03T02:29:56;101138.00;;;9.10;nan
36980;BME280;22891;50.562;7.272;2022-10-03T02:33:13;101143.00;;;9.07;nan
36980;BME280;22891;50.562;7.272;2022-10-03T02:57:52;101151.00;;;9.03;nan
36980;BME280;22891;50.562;7.272;2022-10-03T03:07:51;101144.00;;;8.86;nan
36980;BME280;22891;50.562;7.272;2022-10-03T03:11:03;101151.00;;;8.77;nan
36980;BME280;22891;50.562;7.272;2022-10-03T03:14:04;101165.00;;;8.86;nan
36980;BME280;22891;50.562;7.272;2022-10-03T03:19:29;101166.00;;;8.83;nan
36980;BME280;22891;50.562;7.272;2022-10-03T03:30:20;101176.00;;;8.78;nan
36980;BME280;22891;50.562;7.272;2022-10-03T03:33:14;101174.00;;;8.67;nan
36980;BME280;22891;50.562;7.272;2022-10-03T03:39:33;101169.00;;;8.78;nan
36980;BME280;22891;50.562;7.272;2022-10-03T03:42:27;101190.00;;;8.85;nan
36980;BME280;22891;50.562;7.272;2022-10-03T03:45:18;101180.00;;;9.01;nan
36980;BME280;22891;50.562;7.272;2022-10-03T03:47:59;101183.00;;;9.10;nan
36980;BME280;22891;50.562;7.272;2022-10-03T03:56:27;101189.00;;;9.13;nan
36980;BME280;22891;50.562;7.272;2022-10-03T03:59:57;101189.00;;;9.09;nan
36980;BME280;22891;50.562;7.272;2022-10-03T04:04:07;101188.00;;;9.22;nan
36980;BME280;22891;50.562;7.272;2022-10-03T04:06:49;101182.00;;;9.20;nan
36980;BME280;22891;50.562;7.272;2022-10-03T04:20:56;101185.00;;;9.12;nan
36980;BME280;22891;50.562;7.272;2022-10-03T04:43:42;101206.00;;;8.97;nan
36980;BME280;22891;50.562;7.272;2022-10-03T04:46:29;101205.00;;;8.85;nan
36980;BME280;22891;50.562;7.272;2022-10-03T04:49:09;101204.00;;;8.84;nan
36980;BME280;22891;50.562;7.272;2022-10-03T04:52:03;101193.00;;;8.84;nan
36980;BME280;22891;50.562;7.272;2022-10-03T04:57:44;101199.00;;;8.93;nan
36980;BME280;22891;50.562;7.272;2022-10-03T05:07:15;101196.00;;;8.92;nan
36980;BME280;22891;50.562;7.272;2022-10-03T05:10:03;101211.00;;;8.94;nan
36980;BME280;22891;50.562;7.272;2022-10-03T05:12:50;101207.00;;;8.98;nan
36980;BME280;22891;50.562;7.272;2022-10-03T05:15:50;101214.00;;;8.96;nan
36980;BME280;22891;50.562;7.272;2022-10-03T05:18:33;101204.00;;;9.01;nan
36980;BME280;22891;50.562;7.272;2022-10-03T05:21:15;101206.00;;;9.01;nan
36980;BME280;22891;50.562;7.272;2022-10-03T05:23:58;101198.00;;;9.12;nan
36980;BME280;22891;50.562;7.272;2022-10-03T05:26:52;101207.00;;;9.15;nan
36980;BME280;22891;50.562;7.272;2022-10-03T05:29:41;101204.00;;;9.12;nan
36980;BME280;22891;50.562;7.272;2022-10-03T05:32:59;101216.00;;;9.13;nan
36980;BME280;22891;50.562;7.272;2022-10-03T05:36:44;101220.00;;;9.12;nan
36980;BME280;22891;50.562;7.272;2022-10-03T05:44:16;101205.00;;;9.13;nan
36980;BME280;22891;50.562;7.272;2022-10-03T05:47:10;101232.00;;;9.02;nan
36980;BME280;22891;50.562;7.272;2022-10-03T05:50:36;101232.00;;;9.23;nan
36980;BME280;22891;50.562;7.272;2022-10-03T05:53:27;101218.00;;;9.25;nan
36980;BME280;22891;50.562;7.272;2022-10-03T05:57:57;101232.00;;;9.26;nan
36980;BME280;22891;50.562;7.272;2022-10-03T06:04:23;101235.00;;;9.25;nan
36980;BME280;22891;50.562;7.272;2022-10-03T06:07:10;101239.00;;;9.24;nan
36980;BME280;22891;50.562;7.272;2022-10-03T06:14:28;101239.00;;;9.27;nan
36980;BME280;22891;50.562;7.272;2022-10-03T06:17:54;101233.00;;;9.25;nan
36980;BME280;22891;50.562;7.272;2022-10-03T06:21:04;101220.00;;;9.25;nan
36980;BME280;22891;50.562;7.272;2022-10-03T06:30:57;101245.00;;;9.37;nan
36980;BME280;22891;50.562;7.272;2022-10-03T06:44:33;101257.00;;;9.61;nan
36980;BME280;22891;50.562;7.272;2022-10-03T06:47:40;101270.00;;;9.74;nan
36980;BME280;22891;50.562;7.272;2022-10-03T06:55:59;101269.00;;;10.08;nan
36980;BME280;22891;50.562;7.272;2022-10-03T06:58:52;101273.00;;;10.23;nan
36980;BME280;22891;50.562;7.272;2022-10-03T07:08:00;101278.00;;;10.17;nan
36980;BME280;22891;50.562;7.272;2022-10-03T07:30:01;101284.00;;;11.05;nan
36980;BME280;22891;50.562;7.272;2022-10-03T07:33:23;101263.00;;;11.45;nan
36980;BME280;22891;50.562;7.272;2022-10-03T07:41:15;101284.00;;;11.91;nan
36980;BME280;22891;50.562;7.272;2022-10-03T07:55:01;101307.00;;;12.14;nan
36980;BME280;22891;50.562;7.272;2022-10-03T08:20:04;101667.00;;;15.56;nan
36980;BME280;22891;50.562;7.272;2022-10-03T08:35:10;102100.00;;;18.11;nan
36980;BME280;22891;50.562;7.272;2022-10-03T08:44:17;102050.00;;;15.81;nan
36980;BME280;22891;50.562;7.272;2022-10-03T08:50:37;101997.00;;;15.89;nan
36980;BME280;22891;50.562;7.272;2022-10-03T08:54:42;101999.00;;;15.00;nan
36980;BME280;22891;50.562;7.272;2022-10-03T09:00:23;102079.00;;;16.94;nan
36980;BME280;22891;50.562;7.272;2022-10-03T09:05:49;102143.00;;;17.74;nan
36980;BME280;22891;50.562;7.272;2022-10-03T09:08:48;102200.00;;;18.69;nan
36980;BME280;22891;50.562;7.272;2022-10-03T09:11:45;102210.00;;;19.06;nan
36980;BME280;22891;50.562;7.272;2022-10-03T09:14:36;102234.00;;;18.73;nan
36980;BME280;22891;50.562;7.272;2022-10-03T09:40:25;102009.00;;;15.21;nan
36980;BME280;22891;50.562;7.272;2022-10-03T10:00:18;102055.00;;;16.12;nan
36980;BME280;22891;50.562;7.272;2022-10-03T10:06:14;102002.00;;;16.51;nan
36980;BME280;22891;50.562;7.272;2022-10-03T10:09:24;102092.00;;;17.33;nan
36980;BME280;22891;50.562;7.272;2022-10-03T10:15:55;102150.00;;;17.74;nan
36980;BME280;22891;50.562;7.272;2022-10-03T10:25:29;102170.00;;;18.25;nan
36980;BME280;22891;50.562;7.272;2022-10-03T10:38:55;102208.00;;;18.09;nan
36980;BME280;22891;50.562;7.272;2022-10-03T11:08:53;102199.00;;;18.04;nan
36980;BME280;22891;50.562;7.272;2022-10-03T11:36:57;102140.00;;;18.52;nan
36980;BME280;22891;50.562;7.272;2022-10-03T11:39:48;102195.00;;;19.63;nan
36980;BME280;22891;50.562;7.272;2022-10-03T11:42:36;102204.00;;;21.02;nan
36980;BME280;22891;50.562;7.272;2022-10-03T11:54:21;102219.00;;;21.49;nan
36980;BME280;22891;50.562;7.272;2022-10-03T11:57:39;102198.00;;;19.50;nan
36980;BME280;22891;50.562;7.272;2022-10-03T12:00:19;102199.00;;;19.61;nan
36980;BME280;22891;50.562;7.272;2022-10-03T12:03:08;102192.00;;;19.18;nan
36980;BME280;22891;50.562;7.272;2022-10-03T12:12:47;102200.00;;;19.45;nan
36980;BME280;22891;50.562;7.272;2022-10-03T12:15:31;102183.00;;;21.16;nan
36980;BME280;22891;50.562;7.272;2022-10-03T12:20:03;102185.00;;;20.65;nan
36980;BME280;22891;50.562;7.272;2022-10-03T12:22:53;102183.00;;;20.08;nan
36980;BME280;22891;50.562;7.272;2022-10-03T12:25:27;102177.00;;;19.66;nan
36980;BME280;22891;50.562;7.272;2022-10-03T12:33:56;102166.00;;;18.61;nan
36980;BME280;22891;50.562;7.272;2022-10-03T12:44:18;102159.00;;;18.50;nan
36980;BME280;22891;50.562;7.272;2022-10-03T12:47:17;102123.00;;;17.93;nan
36980;BME280;22891;50.562;7.272;2022-10-03T12:55:29;102161.00;;;17.81;nan
36980;BME280;22891;50.562;7.272;2022-10-03T13:04:51;102159.00;;;17.80;nan
36980;BME280;22891;50.562;7.272;2022-10-03T13:09:09;102168.00;;;18.96;nan
36980;BME280;22891;50.562;7.272;2022-10-03T13:17:44;102158.00;;;18.75;nan
36980;BME280;22891;50.562;7.272;2022-10-03T13:23:55;102151.00;;;18.90;nan
36980;BME280;22891;50.562;7.272;2022-10-03T13:28:31;102143.00;;;19.08;nan
36980;BME280;22891;50.562;7.272;2022-10-03T13:31:22;102153.00;;;19.33;nan
36980;BME280;22891;50.562;7.272;2022-10-03T13:33:53;102148.00;;;19.27;nan
36980;BME280;22891;50.562;7.272;2022-10-03T13:36:38;102150.00;;;19.31;nan
36980;BME280;22891;50.562;7.272;2022-10-03T13:39:16;102150.00;;;18.96;nan
36980;BME280;22891;50.562;7.272;2022-10-03T13:42:15;102162.00;;;19.32;nan
36980;BME280;22891;50.562;7.272;2022-10-03T13:44:55;102158.00;;;18.81;nan
36980;BME280;22891;50.562;7.272;2022-10-03T13:47:43;102152.00;;;18.24;nan
36980;BME280;22891;50.562;7.272;2022-10-03T13:51:55;102145.00;;;18.34;nan
36980;BME280;22891;50.562;7.272;2022-10-03T13:55:00;102138.00;;;18.28;nan
36980;BME280;22891;50.562;7.272;2022-10-03T14:10:56;102130.00;;;17.85;nan
36980;BME280;22891;50.562;7.272;2022-10-03T14:14:24;102127.00;;;17.76;nan
36980;BME280;22891;50.562;7.272;2022-10-03T14:17:07;102111.00;;;17.88;nan
36980;BME280;22891;50.562;7.272;2022-10-03T14:19:45;102123.00;;;17.49;nan
36980;BME280;22891;50.562;7.272;2022-10-03T14:22:34;102117.00;;;17.15;nan
36980;BME280;22891;50.562;7.272;2022-10-03T14:39:21;102089.00;;;16.35;nan
36980;BME280;22891;50.562;7.272;2022-10-03T14:44:11;102066.00;;;16.29;nan
36980;BME280;22891;50.562;7.272;2022-10-03T14:46:55;102071.00;;;16.19;nan
36980;BME280;22891;50.562;7.272;2022-10-03T14:49:26;102071.00;;;16.35;nan
36980;BME280;22891;50.562;7.272;2022-10-03T14:52:06;102079.00;;;16.18;nan
36980;BME280;22891;50.562;7.272;2022-10-03T14:54:36;102072.00;;;16.18;nan
36980;BME280;22891;50.562;7.272;2022-10-03T14:58:16;102073.00;;;16.11;nan
36980;BME280;22891;50.562;7.272;2022-10-03T15:00:48;102073.00;;;16.15;nan
36980;BME280;22891;50.562;7.272;2022-10-03T15:03:23;102071.00;;;16.48;nan
36980;BME280;22891;50.562;7.272;2022-10-03T15:06:03;102082.00;;;16.65;nan
36980;BME280;22891;50.562;7.272;2022-10-03T15:08:46;102083.00;;;16.64;nan
36980;BME280;22891;50.562;7.272;2022-10-03T15:11:15;102089.00;;;16.82;nan
36980;BME280;22891;50.562;7.272;2022-10-03T15:13:52;102094.00;;;16.95;nan
36980;BME280;22891;50.562;7.272;2022-10-03T15:16:21;102087.00;;;17.15;nan
36980;BME280;22891;50.562;7.272;2022-10-03T15:18:56;102081.00;;;17.11;nan
36980;BME280;22891;50.562;7.272;2022-10-03T15:21:27;102070.00;;;16.66;nan
36980;BME280;22891;50.562;7.272;2022-10-03T15:24:06;102068.00;;;16.71;nan
36980;BME280;22891;50.562;7.272;2022-10-03T15:26:38;102059.00;;;16.53;nan
36980;BME280;22891;50.562;7.272;2022-10-03T15:29:06;102044.00;;;16.60;nan
36980;BME280;22891;50.562;7.272;2022-10-03T15:31:40;102055.00;;;16.35;nan
36980;BME280;22891;50.562;7.272;2022-10-03T15:34:19;102048.00;;;16.24;nan
36980;BME280;22891;50.562;7.272;2022-10-03T15:37:11;102045.00;;;16.18;nan
36980;BME280;22891;50.562;7.272;2022-10-03T15:39:40;102032.00;;;16.15;nan
36980;BME280;22891;50.562;7.272;2022-10-03T15:42:29;102025.00;;;16.09;nan
36980;BME280;22891;50.562;7.272;2022-10-03T15:45:03;102034.00;;;15.98;nan
36980;BME280;22891;50.562;7.272;2022-10-03T15:47:33;102024.00;;;16.01;nan
36980;BME280;22891;50.562;7.272;2022-10-03T15:50:13;102010.00;;;15.92;nan
36980;BME280;22891;50.562;7.272;2022-10-03T15:53:02;102014.00;;;15.94;nan
36980;BME280;22891;50.562;7.272;2022-10-03T15:55:48;102026.00;;;15.98;nan
36980;BME280;22891;50.562;7.272;2022-10-03T15:58:29;102007.00;;;16.19;nan
36980;BME280;22891;50.562;7.272;2022-10-03T16:01:21;102018.00;;;16.18;nan
36980;BME280;22891;50.562;7.272;2022-10-03T16:04:02;101998.00;;;16.01;nan
36980;BME280;22891;50.562;7.272;2022-10-03T16:12:03;101960.00;;;15.64;nan
36980;BME280;22891;50.562;7.272;2022-10-03T16:22:36;101931.00;;;15.48;nan
36980;BME280;22891;50.562;7.272;2022-10-03T16:25:15;101929.00;;;15.31;nan
36980;BME280;22891;50.562;7.272;2022-10-03T16:27:56;101877.00;;;15.06;nan
36980;BME280;22891;50.562;7.272;2022-10-03T16:31:48;101832.00;;;14.82;nan
36980;BME280;22891;50.562;7.272;2022-10-03T16:34:17;101749.00;;;14.58;nan
36980;BME280;22891;50.562;7.272;2022-10-03T16:36:46;101706.00;;;14.43;nan
36980;BME280;22891;50.562;7.272;2022-10-03T16:39:34;101687.00;;;14.36;nan
36980;BME280;22891;50.562;7.272;2022-10-03T16:42:15;101656.00;;;14.24;nan
36980;BME280;22891;50.562;7.272;2022-10-03T16:44:52;101635.00;;;14.18;nan
36980;BME280;22891;50.562;7.272;2022-10-03T16:47:40;101655.00;;;14.03;nan
36980;BME280;22891;50.562;7.272;2022-10-03T16:50:19;101635.00;;;14.02;nan
36980;BME280;22891;50.562;7.272;2022-10-03T16:52:52;101627.00;;;13.97;nan
36980;BME280;22891;50.562;7.272;2022-10-03T16:55:32;101615.00;;;13.93;nan
36980;BME280;22891;50.562;7.272;2022-10-03T16:58:17;101596.00;;;13.88;nan
36980;BME280;22891;50.562;7.272;2022-10-03T17:01:00;101596.00;;;13.69;nan
36980;BME280;22891;50.562;7.272;2022-10-03T17:03:34;101572.00;;;13.56;nan
36980;BME280;22891;50.562;7.272;2022-10-03T17:06:02;101562.00;;;13.50;nan
36980;BME280;22891;50.562;7.272;2022-10-03T17:08:35;101557.00;;;13.42;nan
36980;BME280;22891;50.562;7.272;2022-10-03T17:11:06;101542.00;;;13.25;nan
36980;BME280;22891;50.562;7.272;2022-10-03T17:13:46;101523.00;;;13.16;nan
36980;BME280;22891;50.562;7.272;2022-10-03T17:16:59;101509.00;;;13.04;nan
36980;BME280;22891;50.562;7.272;2022-10-03T17:19:40;101507.00;;;13.01;nan
36980;BME280;22891;50.562;7.272;2022-10-03T17:22:39;101506.00;;;12.99;nan
36980;BME280;22891;50.562;7.272;2022-10-03T17:30:51;101480.00;;;12.80;nan
36980;BME280;22891;50.562;7.272;2022-10-03T17:36:56;101471.00;;;12.74;nan
36980;BME280;22891;50.562;7.272;2022-10-03T17:40:00;101467.00;;;12.75;nan
36980;BME280;22891;50.562;7.272;2022-10-03T17:42:50;101449.00;;;12.60;nan
36980;BME280;22891;50.562;7.272;2022-10-03T17:45:30;101449.00;;;12.46;nan
36980;BME280;22891;50.562;7.272;2022-10-03T17:48:59;101444.00;;;12.43;nan
36980;BME280;22891;50.562;7.272;2022-10-03T17:51:41;101419.00;;;12.20;nan
36980;BME280;22891;50.562;7.272;2022-10-03T17:54:14;101407.00;;;12.11;nan
36980;BME280;22891;50.562;7.272;2022-10-03T17:56:51;101393.00;;;12.12;nan
36980;BME280;22891;50.562;7.272;2022-10-03T17:59:31;101384.00;;;12.19;nan
36980;BME280;22891;50.562;7.272;2022-10-03T18:02:20;101391.00;;;12.14;nan
36980;BME280;22891;50.562;7.272;2022-10-03T18:05:16;101383.00;;;12.20;nan
36980;BME280;22891;50.562;7.272;2022-10-03T18:07:44;101382.00;;;12.06;nan
36980;BME280;22891;50.562;7.272;2022-10-03T18:10:21;101382.00;;;11.90;nan
36980;BME280;22891;50.562;7.272;2022-10-03T18:12:50;101372.00;;;11.90;nan
36980;BME280;22891;50.562;7.272;2022-10-03T18:23:00;101365.00;;;11.73;nan
36980;BME280;22891;50.562;7.272;2022-10-03T18:25:45;101342.00;;;11.53;nan
36980;BME280;22891;50.562;7.272;2022-10-03T18:31:17;101316.00;;;11.47;nan
36980;BME280;22891;50.562;7.272;2022-10-03T18:33:54;101303.00;;;11.39;nan
36980;BME280;22891;50.562;7.272;2022-10-03T18:36:24;101284.00;;;11.27;nan
36980;BME280;22891;50.562;7.272;2022-10-03T18:38:55;101281.00;;;11.26;nan
36980;BME280;22891;50.562;7.272;2022-10-03T18:41:23;101264.00;;;11.22;nan
36980;BME280;22891;50.562;7.272;2022-10-03T18:43:55;101222.00;;;10.95;nan
36980;BME280;22891;50.562;7.272;2022-10-03T18:46:39;101260.00;;;11.24;nan
36980;BME280;22891;50.562;7.272;2022-10-03T18:49:58;101254.00;;;11.19;nan
36980;BME280;22891;50.562;7.272;2022-10-03T18:53:31;101262.00;;;11.28;nan
36980;BME280;22891;50.562;7.272;2022-10-03T18:56:04;101264.00;;;11.31;nan
36980;BME280;22891;50.562;7.272;2022-10-03T18:58:33;101258.00;;;11.27;nan
36980;BME280;22891;50.562;7.272;2022-10-03T19:02:27;101260.00;;;11.04;nan
36980;BME280;22891;50.562;7.272;2022-10-03T19:14:20;101233.00;;;10.99;nan
36980;BME280;22891;50.562;7.272;2022-10-03T19:21:14;101207.00;;;10.92;nan
36980;BME280;22891;50.562;7.272;2022-10-03T19:23:58;101217.00;;;10.84;nan
36980;BME280;22891;50.562;7.272;2022-10-03T19:26:32;101218.00;;;10.80;nan
36980;BME280;22891;50.562;7.272;2022-10-03T19:29:48;101209.00;;;10.67;nan
36980;BME280;22891;50.562;7.272;2022-10-03T19:32:26;101213.00;;;10.63;nan
36980;BME280;22891;50.562;7.272;2022-10-03T19:35:00;101208.00;;;10.66;nan
36980;BME280;22891;50.562;7.272;2022-10-03T19:37:43;101208.00;;;10.53;nan
36980;BME280;22891;50.562;7.272;2022-10-03T19:47:32;101197.00;;;10.61;nan
36980;BME280;22891;50.562;7.272;2022-10-03T19:50:19;101201.00;;;10.44;nan
36980;BME280;22891;50.562;7.272;2022-10-03T19:52:47;101201.00;;;10.43;nan
36980;BME280;22891;50.562;7.272;2022-10-03T19:55:27;101186.00;;;10.28;nan
36980;BME280;22891;50.562;7.272;2022-10-03T19:58:02;101175.00;;;10.33;nan
36980;BME280;22891;50.562;7.272;2022-10-03T20:00:31;101161.00;;;10.28;nan
36980;BME280;22891;50.562;7.272;2022-10-03T20:03:21;101173.00;;;10.32;nan
36980;BME280;22891;50.562;7.272;2022-10-03T20:06:01;101177.00;;;10.47;nan
36980;BME280;22891;50.562;7.272;2022-10-03T20:08:43;101180.00;;;10.55;nan
36980;BME280;22891;50.562;7.272;2022-10-03T20:12:11;101178.00;;;10.57;nan
36980;BME280;22891;50.562;7.272;2022-10-03T20:14:42;101173.00;;;10.38;nan
36980;BME280;22891;50.562;7.272;2022-10-03T20:17:13;101167.00;;;10.33;nan
36980;BME280;22891;50.562;7.272;2022-10-03T20:19:57;101170.00;;;10.26;nan
36980;BME280;22891;50.562;7.272;2022-10-03T20:22:28;101173.00;;;10.21;nan
36980;BME280;22891;50.562;7.272;2022-10-03T20:24:56;101170.00;;;10.30;nan
36980;BME280;22891;50.562;7.272;2022-10-03T20:30:54;101169.00;;;10.27;nan
36980;BME280;22891;50.562;7.272;2022-10-03T20:33:31;101160.00;;;10.24;nan
36980;BME280;22891;50.562;7.272;2022-10-03T20:36:02;101154.00;;;10.27;nan
36980;BME280;22891;50.562;7.272;2022-10-03T20:41:56;101153.00;;;10.20;nan
36980;BME280;22891;50.562;7.272;2022-10-03T20:44:47;101147.00;;;10.10;nan
36980;BME280;22891;50.562;7.272;2022-10-03T20:53:36;101139.00;;;9.99;nan
36980;BME280;22891;50.562;7.272;2022-10-03T20:56:09;101147.00;;;10.07;nan
36980;BME280;22891;50.562;7.272;2022-10-03T20:58:46;101147.00;;;10.10;nan
36980;BME280;22891;50.562;7.272;2022-10-03T21:01:15;101145.00;;;10.08;nan
36980;BME280;22891;50.562;7.272;2022-10-03T21:04:47;101153.00;;;9.88;nan
36980;BME280;22891;50.562;7.272;2022-10-03T21:07:28;101144.00;;;9.67;nan
36980;BME280;22891;50.562;7.272;2022-10-03T21:11:30;101148.00;;;9.73;nan
36980;BME280;22891;50.562;7.272;2022-10-03T21:17:13;101145.00;;;9.49;nan
36980;BME280;22891;50.562;7.272;2022-10-03T21:19:45;101139.00;;;9.61;nan
36980;BME280;22891;50.562;7.272;2022-10-03T21:22:15;101145.00;;;9.49;nan
36980;BME280;22891;50.562;7.272;2022-10-03T21:24:58;101126.00;;;9.63;nan
36980;BME280;22891;50.562;7.272;2022-10-03T21:27:25;101119.00;;;9.68;nan
36980;BME280;22891;50.562;7.272;2022-10-03T21:35:51;101127.00;;;9.41;nan
36980;BME280;22891;50.562;7.272;2022-10-03T21:38:26;101130.00;;;9.07;nan
36980;BME280;22891;50.562;7.272;2022-10-03T21:42:06;101119.00;;;9.18;nan
36980;BME280;22891;50.562;7.272;2022-10-03T21:44:48;101123.00;;;9.01;nan
36980;BME280;22891;50.562;7.272;2022-10-03T21:47:30;101126.00;;;9.14;nan
36980;BME280;22891;50.562;7.272;2022-10-03T21:50:00;101126.00;;;8.94;nan
36980;BME280;22891;50.562;7.272;2022-10-03T22:00:19;101102.00;;;8.68;nan
36980;BME280;22891;50.562;7.272;2022-10-03T22:03:13;101088.00;;;8.84;nan
36980;BME280;22891;50.562;7.272;2022-10-03T22:05:53;101085.00;;;8.92;nan
36980;BME280;22891;50.562;7.272;2022-10-03T22:08:28;101084.00;;;9.06;nan
36980;BME280;22891;50.562;7.272;2022-10-03T22:12:50;101084.00;;;9.00;nan
36980;BME280;22891;50.562;7.272;2022-10-03T22:16:07;101083.00;;;8.61;nan
36980;BME280;22891;50.562;7.272;2022-10-03T22:19:11;101071.00;;;8.65;nan
36980;BME280;22891;50.562;7.272;2022-10-03T22:22:00;101064.00;;;8.69;nan
36980;BME280;22891;50.562;7.272;2022-10-03T22:24:46;101073.00;;;8.59;nan
36980;BME280;22891;50.562;7.272;2022-10-03T22:27:36;101065.00;;;8.60;nan
36980;BME280;22891;50.562;7.272;2022-10-03T22:30:13;101078.00;;;8.33;nan
36980;BME280;22891;50.562;7.272;2022-10-03T22:33:12;101075.00;;;8.25;nan
36980;BME280;22891;50.562;7.272;2022-10-03T22:35:54;101066.00;;;8.43;nan
36980;BME280;22891;50.562;7.272;2022-10-03T22:38:27;101069.00;;;8.40;nan
36980;BME280;22891;50.562;7.272;2022-10-03T22:40:58;101062.00;;;8.46;nan
36980;BME280;22891;50.562;7.272;2022-10-03T22:43:25;101063.00;;;8.53;nan
36980;BME280;22891;50.562;7.272;2022-10-03T22:45:54;101062.00;;;8.21;nan
36980;BME280;22891;50.562;7.272;2022-10-03T22:48:27;101051.00;;;8.36;nan
36980;BME280;22891;50.562;7.272;2022-10-03T22:50:55;101045.00;;;8.26;nan
36980;BME280;22891;50.562;7.272;2022-10-03T22:53:25;101054.00;;;8.16;nan
36980;BME280;22891;50.562;7.272;2022-10-03T22:55:56;101020.00;;;8.08;nan
36980;BME280;22891;50.562;7.272;2022-10-03T22:58:24;101039.00;;;8.27;nan
36980;BME280;22891;50.562;7.272;2022-10-03T23:00:52;101035.00;;;8.36;nan
36980;BME280;22891;50.562;7.272;2022-10-03T23:03:30;101035.00;;;8.36;nan
36980;BME280;22891;50.562;7.272;2022-10-03T23:10:38;101041.00;;;8.30;nan
36980;BME280;22891;50.562;7.272;2022-10-03T23:13:27;101054.00;;;8.35;nan
36980;BME280;22891;50.562;7.272;2022-10-03T23:16:14;101056.00;;;8.39;nan
36980;BME280;22891;50.562;7.272;2022-10-03T23:21:49;101060.00;;;8.07;nan
36980;BME280;22891;50.562;7.272;2022-10-03T23:24:29;101061.00;;;7.97;nan
36980;BME280;22891;50.562;7.272;2022-10-03T23:40:35;101049.00;;;7.78;nan
36980;BME280;22891;50.562;7.272;2022-10-03T23:43:05;101043.00;;;7.88;nan
36980;BME280;22891;50.562;7.272;2022-10-03T23:45:34;101046.00;;;7.67;nan
36980;BME280;22891;50.562;7.272;2022-10-03T23:48:12;101047.00;;;7.79;nan
36980;BME280;22891;50.562;7.272;2022-10-03T23:50:46;101047.00;;;7.86;nan
36980;BME280;22891;50.562;7.272;2022-10-03T23:53:23;101035.00;;;7.73;nan
36980;BME280;22891;50.562;7.272;2022-10-03T23:55:50;101037.00;;;7.84;nan
36980;BME280;22891;50.562;7.272;2022-10-03T23:58:22;101027.00;;;7.73;nan
